Loveland, Colorado
Current Conditions -  °F | °C
As of 8:35 PM on Monday 22 Dec 2014 (Local Time) from KFNL Reporting Station
Clear Clear  
Wind Chill: -8°   Ceiling: Unl
Heat Index: -1°   Visibility: 10mi
Dew Point: -10°   Wind: 20mph
Humidity: 51%   Direction: 320°NW
Pressure: 29.85"   Gusts: 25mph
Location:  40.39°N, 105.07°W
Report Text: KFNL 230335Z AUTO 32017G22KT 10SM CLR M01/M10 A2985 RMK AO1
Loading
Personal Weather Stations






























Interactive Weather Map New forecast layout! Learn more

10-Day Weather Forecast

Advertisements
Track Severe Weather on mobile